London Corbin Airport Magee Field
KLOZ : now visible

Airfield :











YOU CAN JOIN US ON...

 
LOGIN :

Register | Disclaimer

   EN    FR    IT 

 









Legend :    VFR   Marginal VFR   IFR   Intensive IFR   Very Intensive IFR
Visi :
Ceiling :
>= 8 km
>= 3000ft
5 to 8 km
1000 to 3000 ft
1500m to 5 km
500 to 1000 ft
800 to 1500m
200 to 500 ft
< 800m
< 200 ft
Symbols :   Thunderstorms  Fog  Heavy snow  Heavy precipitations  Wind > 20 kt






- Airport Elevation : 1212 ft


KLOZ - London Corbin Magee Field

CURRENT METAR :
  • 200312Z AUTO 03003KT 10SM SCT015 OVC037 13/11 A3013 RMK AO2 T01330111

EXPIRED METARs :
  • 200253Z AUTO 35005KT 10SM OVC014 14/11 A3013 RMK AO2 SLP197 60000 T01390106 51009
  • 200220Z AUTO VRB03KT 10SM OVC014 14/11 A3012 RMK AO2 T01390111
  • 200153Z AUTO 33004KT 10SM OVC015 14/11 A3012 RMK AO2 RAB0054E09 SLP193 P0000 T01390106
  • 200053Z AUTO 33003KT 10SM OVC012 14/11 A3010 RMK AO2 SLP187 T01390111
  • 192353Z AUTO 34005KT 10SM BKN010 OVC014 14/11 A3009 RMK AO2 CIG 009V013 SLP184 T01390111 10217 20139 53011
  • 192323Z AUTO 33008KT 10SM OVC009 14/12 A3008 RMK AO2 T01390117
  • 192253Z AUTO 32006KT 10SM OVC010 14/12 A3007 RMK AO2 SLP178 T01440117

TAF KLOZ
Valid from the 20 at 00:00 until the 21 at 00:00 UTC


192338Z 2000/2024 33007KT P6SM SCT007 OVC010
FM200500 35007KT P6SM BKN025
FM200700 35008KT P6SM BKN035
FM200800 34007KT P6SM SCT035
FM201800 32009KT P6SM FEW250
KZID FIR / North America



MET'MAP, your aeronautical weather chart ! - Copyright ORBIFLY December 2007 - Disclaimer

ORBIFLY MET'MAP TEAM :

Programming & Development : Alexandra Zaïnal
Original concept : Baudouin d'Aumeries
Technical & hardware support : Manuel Goepfert
Assistance : Marc-Olivier Méhu




SOURCES & CREDITS :

   NOAA       Earth
Advisory